There are multiple Weather-warnings   Click here for more information


Meteo18 Weather Cam more information Meteo18 Weather Cam


warning for Thunderstorms more information blitzortung!


Rain radar more information rain snow radar


Visit our other weather sites:

Template documentation
and downloads

And another site



Weather Underground History page Text

Daily Summary for August 1, 2017 Units:  Both    English   Metric
« Previous Day
Next Day »
Daily Weekly Monthly Yearly Custom
  High: Low: Average:
Temperature: 78.3 °F /  25.7 °C 60.6 °F /  15.9 °C 67.8 °F /  19.9 °C
Dew Point: 66.4 °F /  19.1 °C 58.6 °F /  14.8 °C 62.4 °F /  16.9 °C
Humidity: 97 % 62 % 84 %
Wind Speed: 14 mph /  22.5 km/h - 2.5 mph /  4 km/h
Wind Gust: 31 mph /  49.9 km/h - -
Wind:- - SSW
Pressure: 30.1 in /  1019.5 hPa 29.9 in /  1011.4 hPa -
Precipitation: 0.92 in /  23.4 mm    
Historical Graphs
 
 
Tabular Data for August 1, 2017
Time Temperature Dew Point Pressure Wind Wind Speed Wind Gust Humidity Rainfall Rate (Hourly)
00:02 61.3 °F /  16.3 °C 58.6 °F /  14.8 °C 29.9 in /  1014.1 hPa NNW 3 mph /  4.8 km/h 14 mph /  22.5 km/h 91 % 0.34 in /  8.6 mm
00:12 62.1 °F /  16.7 °C 59.2 °F /  15.1 °C 29.9 in /  1013.1 hPa North 3 mph /  4.8 km/h 12 mph /  19.3 km/h 90 % 0.26 in /  6.6 mm
00:17 62.1 °F /  16.7 °C 59.4 °F /  15.2 °C 30 in /  1014.4 hPa NW 1 mph /  1.6 km/h 12 mph /  19.3 km/h 91 % 0.18 in /  4.6 mm
00:22 61.9 °F /  16.6 °C 59 °F /  15.0 °C 30 in /  1014.4 hPa North 2 mph /  3.2 km/h 12 mph /  19.3 km/h 90 % 0.18 in /  4.6 mm
00:32 62.1 °F /  16.7 °C 59.4 °F /  15.2 °C 30 in /  1014.8 hPa ENE 3 mph /  4.8 km/h 9 mph /  14.5 km/h 91 % 0.19 in /  4.8 mm
00:37 62.2 °F /  16.8 °C 59.5 °F /  15.3 °C 30 in /  1015.1 hPa Calm   6 mph /  9.7 km/h 91 % 0.18 in /  4.6 mm
00:47 62.2 °F /  16.8 °C 59.5 °F /  15.3 °C 30 in /  1014.4 hPa North 7 mph /  11.3 km/h 8 mph /  12.9 km/h 91 % 0.1 in /  2.5 mm
00:52 62.1 °F /  16.7 °C 59.7 °F /  15.4 °C 30 in /  1014.4 hPa NNW 3 mph /  4.8 km/h 8 mph /  12.9 km/h 92 % 0.1 in /  2.5 mm
01:02 62.1 °F /  16.7 °C 59.7 °F /  15.4 °C 30 in /  1015.5 hPa Calm   11 mph /  17.7 km/h 92 % 0.09 in /  2.3 mm
01:12 61.9 °F /  16.6 °C 59.9 °F /  15.5 °C 30 in /  1015.5 hPa NW 3 mph /  4.8 km/h 8 mph /  12.9 km/h 93 % 0.1 in /  2.5 mm
01:17 61.9 °F /  16.6 °C 59.9 °F /  15.5 °C 30 in /  1015.1 hPa NNW 6 mph /  9.7 km/h 6 mph /  9.7 km/h 93 % 0.09 in /  2.3 mm
01:22 61.9 °F /  16.6 °C 59.9 °F /  15.5 °C 29.9 in /  1014.1 hPa NNW 6 mph /  9.7 km/h 6 mph /  9.7 km/h 93 % 0.09 in /  2.3 mm
01:32 61.7 °F /  16.5 °C 59.7 °F /  15.4 °C 29.9 in /  1013.4 hPa NNE 4 mph /  6.4 km/h 9 mph /  14.5 km/h 93 % 0.09 in /  2.3 mm
01:42 61.9 °F /  16.6 °C 59.9 °F /  15.5 °C 30 in /  1014.4 hPa NW 4 mph /  6.4 km/h 16 mph /  25.7 km/h 93 % 0.11 in /  2.8 mm
01:47 61.9 °F /  16.6 °C 59.9 °F /  15.5 °C 30 in /  1014.8 hPa NW 2 mph /  3.2 km/h 12 mph /  19.3 km/h 93 % 0.06 in /  1.5 mm
01:52 61.9 °F /  16.6 °C 59.5 °F /  15.3 °C 30 in /  1015.1 hPa Calm   12 mph /  19.3 km/h 92 % 0.06 in /  1.5 mm
01:57 61.9 °F /  16.6 °C 59.5 °F /  15.3 °C 30 in /  1014.8 hPa NE 3 mph /  4.8 km/h 9 mph /  14.5 km/h 92 % 0.04 in /  1.0 mm
02:02 61.9 °F /  16.6 °C 59.5 °F /  15.3 °C 30 in /  1014.4 hPa North 1 mph /  1.6 km/h 9 mph /  14.5 km/h 92 % 0.04 in /  1.0 mm
02:07 61.9 °F /  16.6 °C 59.9 °F /  15.5 °C 30 in /  1014.4 hPa NNW 3 mph /  4.8 km/h 4 mph /  6.4 km/h 93 % 0.03 in /  0.8 mm
02:12 61.9 °F /  16.6 °C 59.9 °F /  15.5 °C 30 in /  1014.4 hPa NW 2 mph /  3.2 km/h 4 mph /  6.4 km/h 93 % 0.03 in /  0.8 mm
02:17 61.9 °F /  16.6 °C 59.9 °F /  15.5 °C 30 in /  1014.4 hPa NNW 3 mph /  4.8 km/h 6 mph /  9.7 km/h 93 % 0.03 in /  0.8 mm
02:22 61.9 °F /  16.6 °C 59.9 °F /  15.5 °C 30 in /  1014.4 hPa Calm   6 mph /  9.7 km/h 93 % 0.03 in /  0.8 mm
02:32 62.1 °F /  16.7 °C 60.1 °F /  15.6 °C 30 in /  1014.4 hPa NE 2 mph /  3.2 km/h 6 mph /  9.7 km/h 93 % 0.01 in /  0.3 mm
02:42 61.9 °F /  16.6 °C 59.9 °F /  15.5 °C 29.9 in /  1013.8 hPa ENE 3 mph /  4.8 km/h 6 mph /  9.7 km/h 93 % 0 in /  0.0 mm
02:52 61.9 °F /  16.6 °C 59.9 °F /  15.5 °C 29.9 in /  1014.1 hPa NNW 2 mph /  3.2 km/h 4 mph /  6.4 km/h 93 % 0.02 in /  0.5 mm
02:57 61.9 °F /  16.6 °C 59.9 °F /  15.5 °C 30 in /  1014.4 hPa Calm   6 mph /  9.7 km/h 93 % 0.02 in /  0.5 mm
03:02 61.9 °F /  16.6 °C 60.1 °F /  15.6 °C 30 in /  1014.8 hPa Calm   6 mph /  9.7 km/h 94 % 0.02 in /  0.5 mm
03:07 61.9 °F /  16.6 °C 60.1 °F /  15.6 °C 30 in /  1014.4 hPa Calm   4 mph /  6.4 km/h 94 % 0.02 in /  0.5 mm
03:12 61.9 °F /  16.6 °C 60.1 °F /  15.6 °C 30 in /  1014.4 hPa Calm   4 mph /  6.4 km/h 94 % 0.02 in /  0.5 mm
03:17 61.9 °F /  16.6 °C 60.1 °F /  15.6 °C 29.9 in /  1014.1 hPa Calm   4 mph /  6.4 km/h 94 % 0.02 in /  0.5 mm
03:22 61.9 °F /  16.6 °C 60.1 °F /  15.6 °C 29.9 in /  1014.1 hPa NNE 1 mph /  1.6 km/h 3 mph /  4.8 km/h 94 % 0.02 in /  0.5 mm
03:32 61.9 °F /  16.6 °C 60.1 °F /  15.6 °C 29.9 in /  1013.8 hPa NNW 4 mph /  6.4 km/h 5 mph /  8.0 km/h 94 % 0.02 in /  0.5 mm
03:37 61.9 °F /  16.6 °C 60.1 °F /  15.6 °C 29.9 in /  1013.1 hPa WSW 2 mph /  3.2 km/h 10 mph /  16.1 km/h 94 % 0.02 in /  0.5 mm
03:42 61.9 °F /  16.6 °C 60.1 °F /  15.6 °C 30 in /  1014.4 hPa Calm   13 mph /  20.9 km/h 94 % 0.02 in /  0.5 mm
03:47 61.9 °F /  16.6 °C 60.1 °F /  15.6 °C 29.9 in /  1013.4 hPa NNW 5 mph /  8.0 km/h 13 mph /  20.9 km/h 94 % 0.02 in /  0.5 mm
03:52 62.1 °F /  16.7 °C 60.3 °F /  15.7 °C 29.9 in /  1013.8 hPa Calm   7 mph /  11.3 km/h 94 % 0.04 in /  1.0 mm
03:57 62.1 °F /  16.7 °C 60.3 °F /  15.7 °C 30 in /  1014.8 hPa WNW 2 mph /  3.2 km/h 7 mph /  11.3 km/h 94 % 0.04 in /  1.0 mm
04:02 62.1 °F /  16.7 °C 60.3 °F /  15.7 °C 30 in /  1014.4 hPa Calm   6 mph /  9.7 km/h 94 % 0.05 in /  1.3 mm
04:12 61.9 °F /  16.6 °C 60.1 °F /  15.6 °C 30 in /  1014.8 hPa Calm   3 mph /  4.8 km/h 94 % 0.05 in /  1.3 mm
04:17 61.9 °F /  16.6 °C 60.1 °F /  15.6 °C 30 in /  1014.4 hPa Calm   3 mph /  4.8 km/h 94 % 0.05 in /  1.3 mm
04:22 61.9 °F /  16.6 °C 60.1 °F /  15.6 °C 30 in /  1014.4 hPa Calm   3 mph /  4.8 km/h 94 % 0.04 in /  1.0 mm
04:27 61.9 °F /  16.6 °C 60.4 °F /  15.8 °C 29.9 in /  1014.1 hPa NNW 1 mph /  1.6 km/h 3 mph /  4.8 km/h 95 % 0.04 in /  1.0 mm
04:32 61.9 °F /  16.6 °C 60.4 °F /  15.8 °C 29.9 in /  1014.1 hPa Calm   3 mph /  4.8 km/h 95 % 0.05 in /  1.3 mm
04:42 61.7 °F /  16.5 °C 60.3 °F /  15.7 °C 29.9 in /  1014.1 hPa Calm   6 mph /  9.7 km/h 95 % 0.04 in /  1.0 mm
04:52 61.9 °F /  16.6 °C 60.4 °F /  15.8 °C 29.9 in /  1013.8 hPa NNW 1 mph /  1.6 km/h 6 mph /  9.7 km/h 95 % 0.04 in /  1.0 mm
04:57 61.9 °F /  16.6 °C 60.4 °F /  15.8 °C 29.9 in /  1013.4 hPa North 1 mph /  1.6 km/h 4 mph /  6.4 km/h 95 % 0.02 in /  0.5 mm
05:02 61.9 °F /  16.6 °C 60.4 °F /  15.8 °C 29.9 in /  1013.4 hPa North 4 mph /  6.4 km/h 4 mph /  6.4 km/h 95 % 0.02 in /  0.5 mm
05:12 61.9 °F /  16.6 °C 60.4 °F /  15.8 °C 29.9 in /  1013.8 hPa North 3 mph /  4.8 km/h 6 mph /  9.7 km/h 95 % 0.02 in /  0.5 mm
05:17 61.9 °F /  16.6 °C 60.4 °F /  15.8 °C 29.9 in /  1013.4 hPa NNW 1 mph /  1.6 km/h 6 mph /  9.7 km/h 95 % 0.02 in /  0.5 mm
05:22 61.9 °F /  16.6 °C 60.8 °F /  16.0 °C 30 in /  1015.1 hPa SW 5 mph /  8.0 km/h 6 mph /  9.7 km/h 96 % 0.02 in /  0.5 mm
05:27 61.9 °F /  16.6 °C 60.4 °F /  15.8 °C 30 in /  1016.8 hPa West 14 mph /  22.5 km/h 14 mph /  22.5 km/h 95 % 0.02 in /  0.5 mm
05:37 62.1 °F /  16.7 °C 61 °F /  16.1 °C 30 in /  1016.5 hPa South 1 mph /  1.6 km/h 31 mph /  49.9 km/h 96 % 0.45 in /  11.4 mm
05:42 62.1 °F /  16.7 °C 61 °F /  16.1 °C 30 in /  1016.8 hPa SW 5 mph /  8.0 km/h 31 mph /  49.9 km/h 96 % 0.45 in /  11.4 mm
05:47 61.5 °F /  16.4 °C 60.1 °F /  15.6 °C 30 in /  1016.8 hPa SSW 4 mph /  6.4 km/h 10 mph /  16.1 km/h 95 % 0.51 in /  13.0 mm
05:52 61.5 °F /  16.4 °C 60.4 °F /  15.8 °C 30.1 in /  1017.5 hPa SSW 7 mph /  11.3 km/h 10 mph /  16.1 km/h 96 % 0.51 in /  13.0 mm
06:02 61.2 °F /  16.2 °C 60.1 °F /  15.6 °C 30.1 in /  1017.8 hPa SE 3 mph /  4.8 km/h 10 mph /  16.1 km/h 96 % 0.54 in /  13.7 mm
06:07 61.2 °F /  16.2 °C 60.1 °F /  15.6 °C 30 in /  1016.5 hPa ENE 1 mph /  1.6 km/h 10 mph /  16.1 km/h 96 % 0.57 in /  14.5 mm
06:12 61.2 °F /  16.2 °C 60.1 °F /  15.6 °C 30 in /  1016.1 hPa NE 2 mph /  3.2 km/h 10 mph /  16.1 km/h 96 % 0.57 in /  14.5 mm
06:17 61.2 °F /  16.2 °C 60.1 °F /  15.6 °C 30 in /  1014.8 hPa NE 11 mph /  17.7 km/h 11 mph /  17.7 km/h 96 % 0.58 in /  14.7 mm
06:22 61.2 °F /  16.2 °C 60.1 °F /  15.6 °C 29.9 in /  1013.8 hPa NE 11 mph /  17.7 km/h 11 mph /  17.7 km/h 96 % 0.6 in /  15.2 mm
06:32 61 °F /  16.1 °C 59.9 °F /  15.5 °C 29.9 in /  1011.7 hPa North 9 mph /  14.5 km/h 19 mph /  30.6 km/h 96 % 0.5 in /  12.7 mm
06:37 61 °F /  16.1 °C 59.9 °F /  15.5 °C 29.9 in /  1012.1 hPa NNE 9 mph /  14.5 km/h 19 mph /  30.6 km/h 96 % 0.5 in /  12.7 mm
06:42 61 °F /  16.1 °C 59.9 °F /  15.5 °C 29.9 in /  1012.1 hPa NE 2 mph /  3.2 km/h 23 mph /  37.0 km/h 96 % 0.16 in /  4.1 mm
06:47 61 °F /  16.1 °C 59.9 °F /  15.5 °C 29.9 in /  1012.1 hPa NNE 6 mph /  9.7 km/h 23 mph /  37.0 km/h 96 % 0.16 in /  4.1 mm
06:52 60.8 °F /  16.0 °C 59.7 °F /  15.4 °C 29.9 in /  1012.1 hPa WSW 1 mph /  1.6 km/h 15 mph /  24.1 km/h 96 % 0.1 in /  2.5 mm
06:57 60.8 °F /  16.0 °C 59.7 °F /  15.4 °C 29.9 in /  1012.8 hPa North 5 mph /  8.0 km/h 9 mph /  14.5 km/h 96 % 0.09 in /  2.3 mm
07:02 60.8 °F /  16.0 °C 59.7 °F /  15.4 °C 29.9 in /  1011.4 hPa North 3 mph /  4.8 km/h 9 mph /  14.5 km/h 96 % 0.09 in /  2.3 mm
07:07 60.8 °F /  16.0 °C 59.7 °F /  15.4 °C 29.9 in /  1013.1 hPa South 4 mph /  6.4 km/h 11 mph /  17.7 km/h 96 % 0.06 in /  1.5 mm
07:12 61 °F /  16.1 °C 59.9 °F /  15.5 °C 29.9 in /  1012.8 hPa SW 2 mph /  3.2 km/h 11 mph /  17.7 km/h 96 % 0.06 in /  1.5 mm
07:17 60.8 °F /  16.0 °C 59.7 °F /  15.4 °C 29.9 in /  1013.1 hPa SSW 3 mph /  4.8 km/h 10 mph /  16.1 km/h 96 % 0.04 in /  1.0 mm
07:22 60.6 °F /  15.9 °C 59.5 °F /  15.3 °C 29.9 in /  1013.8 hPa South 4 mph /  6.4 km/h 10 mph /  16.1 km/h 96 % 0.04 in /  1.0 mm
07:27 60.6 °F /  15.9 °C 59.5 °F /  15.3 °C 29.9 in /  1014.1 hPa SSW 7 mph /  11.3 km/h 8 mph /  12.9 km/h 96 % 0.02 in /  0.5 mm
07:37 61 °F /  16.1 °C 60.1 °F /  15.6 °C 30 in /  1015.5 hPa West 7 mph /  11.3 km/h 12 mph /  19.3 km/h 97 % 0.01 in /  0.3 mm
07:42 61 °F /  16.1 °C 59.9 °F /  15.5 °C 30 in /  1014.8 hPa WSW 5 mph /  8.0 km/h 12 mph /  19.3 km/h 96 % 0.01 in /  0.3 mm
07:47 61.2 °F /  16.2 °C 60.1 °F /  15.6 °C 30 in /  1014.8 hPa West 2 mph /  3.2 km/h 14 mph /  22.5 km/h 96 % 0.01 in /  0.3 mm
07:52 61.2 °F /  16.2 °C 60.1 °F /  15.6 °C 30 in /  1014.4 hPa WNW 4 mph /  6.4 km/h 14 mph /  22.5 km/h 96 % 0.01 in /  0.3 mm
07:57 61.3 °F /  16.3 °C 60.3 °F /  15.7 °C 30 in /  1014.4 hPa West 3 mph /  4.8 km/h 8 mph /  12.9 km/h 96 % 0.01 in /  0.3 mm
08:02 61.5 °F /  16.4 °C 60.4 °F /  15.8 °C 30 in /  1014.8 hPa SW 4 mph /  6.4 km/h 8 mph /  12.9 km/h 96 % 0.01 in /  0.3 mm
08:07 61.9 °F /  16.6 °C 60.8 °F /  16.0 °C 30 in /  1015.1 hPa SW 9 mph /  14.5 km/h 9 mph /  14.5 km/h 96 % 0 in /  0.0 mm
08:12 62.1 °F /  16.7 °C 61 °F /  16.1 °C 30 in /  1015.1 hPa West 6 mph /  9.7 km/h 8 mph /  12.9 km/h 96 % 0 in /  0.0 mm
08:17 62.1 °F /  16.7 °C 61 °F /  16.1 °C 30 in /  1015.5 hPa WSW 9 mph /  14.5 km/h 13 mph /  20.9 km/h 96 % 0 in /  0.0 mm
08:22 62.1 °F /  16.7 °C 60.6 °F /  15.9 °C 30 in /  1015.8 hPa SW 9 mph /  14.5 km/h 13 mph /  20.9 km/h 95 % 0 in /  0.0 mm
08:27 62.2 °F /  16.8 °C 60.8 °F /  16.0 °C 30 in /  1015.8 hPa WSW 7 mph /  11.3 km/h 15 mph /  24.1 km/h 95 % 0 in /  0.0 mm
08:32 62.2 °F /  16.8 °C 60.8 °F /  16.0 °C 30 in /  1016.1 hPa West 3 mph /  4.8 km/h 15 mph /  24.1 km/h 95 % 0 in /  0.0 mm
08:37 62.2 °F /  16.8 °C 60.8 °F /  16.0 °C 30 in /  1015.8 hPa West 2 mph /  3.2 km/h 12 mph /  19.3 km/h 95 % 0 in /  0.0 mm
08:42 62.2 °F /  16.8 °C 60.8 °F /  16.0 °C 30 in /  1016.5 hPa West 11 mph /  17.7 km/h 12 mph /  19.3 km/h 95 % 0 in /  0.0 mm
08:47 62.4 °F /  16.9 °C 61 °F /  16.1 °C 30 in /  1016.5 hPa WSW 4 mph /  6.4 km/h 12 mph /  19.3 km/h 95 % 0 in /  0.0 mm
08:52 62.4 °F /  16.9 °C 61 °F /  16.1 °C 30 in /  1016.8 hPa WSW 13 mph /  20.9 km/h 13 mph /  20.9 km/h 95 % 0 in /  0.0 mm
09:02 62.4 °F /  16.9 °C 61 °F /  16.1 °C 30 in /  1017.2 hPa West 3 mph /  4.8 km/h 14 mph /  22.5 km/h 95 % 0 in /  0.0 mm
09:07 62.4 °F /  16.9 °C 61 °F /  16.1 °C 30 in /  1016.5 hPa Calm   14 mph /  22.5 km/h 95 % 0.01 in /  0.3 mm
09:12 62.4 °F /  16.9 °C 61 °F /  16.1 °C 30 in /  1016.5 hPa Calm   14 mph /  22.5 km/h 95 % 0.01 in /  0.3 mm
09:17 62.4 °F /  16.9 °C 61 °F /  16.1 °C 30 in /  1016.8 hPa ESE 1 mph /  1.6 km/h 12 mph /  19.3 km/h 95 % 0.01 in /  0.3 mm
09:22 62.4 °F /  16.9 °C 61 °F /  16.1 °C 30 in /  1016.8 hPa Calm   7 mph /  11.3 km/h 95 % 0.03 in /  0.8 mm
09:32 62.2 °F /  16.8 °C 60.8 °F /  16.0 °C 30 in /  1015.5 hPa NE 5 mph /  8.0 km/h 6 mph /  9.7 km/h 95 % 0.05 in /  1.3 mm
09:37 62.2 °F /  16.8 °C 60.8 °F /  16.0 °C 30 in /  1014.8 hPa NE 8 mph /  12.9 km/h 10 mph /  16.1 km/h 95 % 0.06 in /  1.5 mm
09:42 62.4 °F /  16.9 °C 61.3 °F /  16.3 °C 30 in /  1016.1 hPa East 2 mph /  3.2 km/h 10 mph /  16.1 km/h 96 % 0.06 in /  1.5 mm
09:47 62.6 °F /  17.0 °C 61.5 °F /  16.4 °C 30 in /  1016.8 hPa Calm   12 mph /  19.3 km/h 96 % 0.06 in /  1.5 mm
09:52 62.8 °F /  17.1 °C 61.7 °F /  16.5 °C 30 in /  1017.2 hPa SW 2 mph /  3.2 km/h 12 mph /  19.3 km/h 96 % 0.06 in /  1.5 mm
09:57 62.6 °F /  17.0 °C 61.5 °F /  16.4 °C 30 in /  1016.8 hPa WNW 1 mph /  1.6 km/h 7 mph /  11.3 km/h 96 % 0.06 in /  1.5 mm
10:02 62.6 °F /  17.0 °C 61.5 °F /  16.4 °C 30 in /  1015.8 hPa ENE 2 mph /  3.2 km/h 7 mph /  11.3 km/h 96 % 0.06 in /  1.5 mm
10:07 62.4 °F /  16.9 °C 61.3 °F /  16.3 °C 30 in /  1015.1 hPa NE 9 mph /  14.5 km/h 9 mph /  14.5 km/h 96 % 0.06 in /  1.5 mm
10:12 62.2 °F /  16.8 °C 61.2 °F /  16.2 °C 29.9 in /  1014.1 hPa ESE 4 mph /  6.4 km/h 5 mph /  8.0 km/h 96 % 0.06 in /  1.5 mm
10:17 62.4 °F /  16.9 °C 61.3 °F /  16.3 °C 30 in /  1015.8 hPa SE 1 mph /  1.6 km/h 13 mph /  20.9 km/h 96 % 0.04 in /  1.0 mm
10:22 62.8 °F /  17.1 °C 61.7 °F /  16.5 °C 30 in /  1015.8 hPa Calm   13 mph /  20.9 km/h 96 % 0.04 in /  1.0 mm
10:27 63 °F /  17.2 °C 61.9 °F /  16.6 °C 30 in /  1015.8 hPa Calm   5 mph /  8.0 km/h 96 % 0.02 in /  0.5 mm
10:32 63.3 °F /  17.4 °C 62.2 °F /  16.8 °C 30 in /  1016.5 hPa SW 2 mph /  3.2 km/h 5 mph /  8.0 km/h 96 % 0.02 in /  0.5 mm
10:37 63.1 °F /  17.3 °C 61.7 °F /  16.5 °C 30 in /  1016.5 hPa SW 3 mph /  4.8 km/h 3 mph /  4.8 km/h 95 % 0.02 in /  0.5 mm
10:42 63.3 °F /  17.4 °C 62.2 °F /  16.8 °C 30 in /  1016.1 hPa West 2 mph /  3.2 km/h 2 mph /  3.2 km/h 96 % 0.02 in /  0.5 mm
10:47 63.3 °F /  17.4 °C 61.9 °F /  16.6 °C 30 in /  1016.1 hPa WNW 3 mph /  4.8 km/h 4 mph /  6.4 km/h 95 % 0.02 in /  0.5 mm
10:57 63.9 °F /  17.7 °C 62.8 °F /  17.1 °C 30 in /  1016.5 hPa Calm   6 mph /  9.7 km/h 96 % 0.01 in /  0.3 mm
11:02 63.7 °F /  17.6 °C 61.9 °F /  16.6 °C 30 in /  1015.8 hPa Calm   6 mph /  9.7 km/h 94 % 0.01 in /  0.3 mm
11:07 63.9 °F /  17.7 °C 62.4 °F /  16.9 °C 30 in /  1015.8 hPa North 2 mph /  3.2 km/h 3 mph /  4.8 km/h 95 % 0 in /  0.0 mm
11:12 64.2 °F /  17.9 °C 62.4 °F /  16.9 °C 30 in /  1016.1 hPa WNW 5 mph /  8.0 km/h 5 mph /  8.0 km/h 94 % 0 in /  0.0 mm
11:17 64.2 °F /  17.9 °C 62.4 °F /  16.9 °C 30 in /  1017.2 hPa SW 5 mph /  8.0 km/h 5 mph /  8.0 km/h 94 % 0 in /  0.0 mm
11:22 64.4 °F /  18.0 °C 62.6 °F /  17.0 °C 30 in /  1016.8 hPa SW 3 mph /  4.8 km/h 5 mph /  8.0 km/h 94 % 0 in /  0.0 mm
11:27 64.8 °F /  18.2 °C 63 °F /  17.2 °C 30 in /  1016.8 hPa West 2 mph /  3.2 km/h 6 mph /  9.7 km/h 94 % 0 in /  0.0 mm
11:32 65.3 °F /  18.5 °C 63.1 °F /  17.3 °C 30 in /  1016.8 hPa WSW 2 mph /  3.2 km/h 6 mph /  9.7 km/h 93 % 0 in /  0.0 mm
11:37 65.7 °F /  18.7 °C 63 °F /  17.2 °C 30 in /  1016.8 hPa Calm   4 mph /  6.4 km/h 91 % 0 in /  0.0 mm
11:42 66 °F /  18.9 °C 62.6 °F /  17.0 °C 30 in /  1016.8 hPa SW 3 mph /  4.8 km/h 4 mph /  6.4 km/h 89 % 0 in /  0.0 mm
11:47 66.4 °F /  19.1 °C 63.3 °F /  17.4 °C 30 in /  1016.5 hPa West 3 mph /  4.8 km/h 5 mph /  8.0 km/h 90 % 0 in /  0.0 mm
11:52 66.4 °F /  19.1 °C 62.8 °F /  17.1 °C 30 in /  1016.5 hPa West 2 mph /  3.2 km/h 5 mph /  8.0 km/h 88 % 0 in /  0.0 mm
11:57 66.6 °F /  19.2 °C 63 °F /  17.2 °C 30 in /  1016.5 hPa WSW 2 mph /  3.2 km/h 4 mph /  6.4 km/h 88 % 0 in /  0.0 mm
12:02 67.5 °F /  19.7 °C 64 °F /  17.8 °C 30 in /  1016.5 hPa South 1 mph /  1.6 km/h 4 mph /  6.4 km/h 89 % 0 in /  0.0 mm
12:07 67.8 °F /  19.9 °C 63.5 °F /  17.5 °C 30 in /  1016.5 hPa West 2 mph /  3.2 km/h 4 mph /  6.4 km/h 86 % 0 in /  0.0 mm
12:17 68.4 °F /  20.2 °C 63.7 °F /  17.6 °C 30 in /  1016.5 hPa South 3 mph /  4.8 km/h 5 mph /  8.0 km/h 85 % 0 in /  0.0 mm
12:22 68.4 °F /  20.2 °C 63.3 °F /  17.4 °C 30 in /  1016.5 hPa Calm   5 mph /  8.0 km/h 84 % 0 in /  0.0 mm
12:27 68.4 °F /  20.2 °C 63 °F /  17.2 °C 30 in /  1016.8 hPa WSW 5 mph /  8.0 km/h 7 mph /  11.3 km/h 83 % 0 in /  0.0 mm
12:32 68.5 °F /  20.3 °C 63.1 °F /  17.3 °C 30 in /  1016.8 hPa West 3 mph /  4.8 km/h 7 mph /  11.3 km/h 83 % 0 in /  0.0 mm
12:37 69.1 °F /  20.6 °C 63.7 °F /  17.6 °C 30 in /  1016.8 hPa SSE 1 mph /  1.6 km/h 7 mph /  11.3 km/h 83 % 0 in /  0.0 mm
12:42 70 °F /  21.1 °C 64.9 °F /  18.3 °C 30 in /  1016.5 hPa Calm   7 mph /  11.3 km/h 84 % 0 in /  0.0 mm
12:47 70.2 °F /  21.2 °C 64.4 °F /  18.0 °C 30 in /  1016.8 hPa SW 1 mph /  1.6 km/h 6 mph /  9.7 km/h 82 % 0 in /  0.0 mm
12:52 70.7 °F /  21.5 °C 65.3 °F /  18.5 °C 30 in /  1016.8 hPa SW 4 mph /  6.4 km/h 4 mph /  6.4 km/h 83 % 0 in /  0.0 mm
12:57 70.9 °F /  21.6 °C 64.4 °F /  18.0 °C 30 in /  1016.8 hPa SSW 2 mph /  3.2 km/h 6 mph /  9.7 km/h 80 % 0 in /  0.0 mm
13:02 71.1 °F /  21.7 °C 64.6 °F /  18.1 °C 30 in /  1016.8 hPa West 3 mph /  4.8 km/h 7 mph /  11.3 km/h 80 % 0 in /  0.0 mm
13:12 72.1 °F /  22.3 °C 66 °F /  18.9 °C 30 in /  1016.8 hPa WSW 5 mph /  8.0 km/h 7 mph /  11.3 km/h 81 % 0 in /  0.0 mm
13:17 72.7 °F /  22.6 °C 65.8 °F /  18.8 °C 30 in /  1016.8 hPa WNW 4 mph /  6.4 km/h 6 mph /  9.7 km/h 79 % 0 in /  0.0 mm
13:22 72.9 °F /  22.7 °C 65.7 °F /  18.7 °C 30 in /  1016.8 hPa West 1 mph /  1.6 km/h 7 mph /  11.3 km/h 78 % 0 in /  0.0 mm
13:27 73 °F /  22.8 °C 64.6 °F /  18.1 °C 30 in /  1016.8 hPa Calm   7 mph /  11.3 km/h 75 % 0 in /  0.0 mm
13:32 73.2 °F /  22.9 °C 64.8 °F /  18.2 °C 30 in /  1016.8 hPa SSE 2 mph /  3.2 km/h 7 mph /  11.3 km/h 75 % 0 in /  0.0 mm
13:37 73.8 °F /  23.2 °C 64.6 °F /  18.1 °C 30 in /  1016.8 hPa SW 4 mph /  6.4 km/h 6 mph /  9.7 km/h 73 % 0 in /  0.0 mm
13:42 73.6 °F /  23.1 °C 65.1 °F /  18.4 °C 30 in /  1016.8 hPa WSW 4 mph /  6.4 km/h 7 mph /  11.3 km/h 75 % 0 in /  0.0 mm
13:47 73.8 °F /  23.2 °C 64.6 °F /  18.1 °C 30 in /  1016.8 hPa South 2 mph /  3.2 km/h 7 mph /  11.3 km/h 73 % 0 in /  0.0 mm
13:52 73.6 °F /  23.1 °C 65.5 °F /  18.6 °C 30 in /  1016.8 hPa SSW 2 mph /  3.2 km/h 7 mph /  11.3 km/h 76 % 0 in /  0.0 mm
13:57 73.6 °F /  23.1 °C 64.4 °F /  18.0 °C 30 in /  1016.8 hPa SSW 5 mph /  8.0 km/h 7 mph /  11.3 km/h 73 % 0 in /  0.0 mm
14:02 73.8 °F /  23.2 °C 64.9 °F /  18.3 °C 30 in /  1016.8 hPa SW 4 mph /  6.4 km/h 7 mph /  11.3 km/h 74 % 0 in /  0.0 mm
14:12 73.8 °F /  23.2 °C 64.6 °F /  18.1 °C 30 in /  1017.2 hPa West 3 mph /  4.8 km/h 7 mph /  11.3 km/h 73 % 0 in /  0.0 mm
14:17 74.1 °F /  23.4 °C 65.3 °F /  18.5 °C 30 in /  1017.2 hPa SW 4 mph /  6.4 km/h 7 mph /  11.3 km/h 74 % 0 in /  0.0 mm
14:22 74.5 °F /  23.6 °C 65.3 °F /  18.5 °C 30 in /  1017.2 hPa SSW 7 mph /  11.3 km/h 7 mph /  11.3 km/h 73 % 0 in /  0.0 mm
14:32 74.5 °F /  23.6 °C 64.4 °F /  18.0 °C 30 in /  1017.2 hPa SE 2 mph /  3.2 km/h 7 mph /  11.3 km/h 71 % 0 in /  0.0 mm
14:37 74.8 °F /  23.8 °C 64.8 °F /  18.2 °C 30 in /  1017.2 hPa SW 4 mph /  6.4 km/h 7 mph /  11.3 km/h 71 % 0 in /  0.0 mm
14:42 75 °F /  23.9 °C 65.3 °F /  18.5 °C 30 in /  1017.2 hPa South 4 mph /  6.4 km/h 6 mph /  9.7 km/h 72 % 0 in /  0.0 mm
14:47 75.4 °F /  24.1 °C 65.3 °F /  18.5 °C 30 in /  1017.2 hPa SSW 6 mph /  9.7 km/h 6 mph /  9.7 km/h 71 % 0 in /  0.0 mm
14:52 74.8 °F /  23.8 °C 64.4 °F /  18.0 °C 30 in /  1017.2 hPa SSW 1 mph /  1.6 km/h 9 mph /  14.5 km/h 70 % 0 in /  0.0 mm
14:57 74.7 °F /  23.7 °C 64.6 °F /  18.1 °C 30 in /  1017.2 hPa SW 3 mph /  4.8 km/h 9 mph /  14.5 km/h 71 % 0 in /  0.0 mm
15:02 74.7 °F /  23.7 °C 65.1 °F /  18.4 °C 30 in /  1017.2 hPa South 1 mph /  1.6 km/h 9 mph /  14.5 km/h 72 % 0 in /  0.0 mm
15:07 75.2 °F /  24.0 °C 65.5 °F /  18.6 °C 30 in /  1017.2 hPa South 2 mph /  3.2 km/h 6 mph /  9.7 km/h 72 % 0 in /  0.0 mm
15:12 75 °F /  23.9 °C 64.6 °F /  18.1 °C 30 in /  1017.2 hPa SSW 5 mph /  8.0 km/h 5 mph /  8.0 km/h 70 % 0 in /  0.0 mm
15:17 75 °F /  23.9 °C 64.6 °F /  18.1 °C 30 in /  1016.8 hPa Calm   5 mph /  8.0 km/h 70 % 0 in /  0.0 mm
15:22 75.6 °F /  24.2 °C 64.8 °F /  18.2 °C 30 in /  1016.8 hPa SSW 3 mph /  4.8 km/h 5 mph /  8.0 km/h 69 % 0 in /  0.0 mm
15:27 75.9 °F /  24.4 °C 64.9 °F /  18.3 °C 30 in /  1017.2 hPa South 3 mph /  4.8 km/h 5 mph /  8.0 km/h 69 % 0 in /  0.0 mm
15:32 76.3 °F /  24.6 °C 64.9 °F /  18.3 °C 30 in /  1017.2 hPa SW 2 mph /  3.2 km/h 5 mph /  8.0 km/h 68 % 0 in /  0.0 mm
15:37 76.3 °F /  24.6 °C 64.9 °F /  18.3 °C 30 in /  1017.2 hPa South 2 mph /  3.2 km/h 6 mph /  9.7 km/h 68 % 0 in /  0.0 mm
15:42 75.9 °F /  24.4 °C 65.5 °F /  18.6 °C 30 in /  1017.2 hPa WNW 2 mph /  3.2 km/h 8 mph /  12.9 km/h 70 % 0 in /  0.0 mm
15:47 75.7 °F /  24.3 °C 65.7 °F /  18.7 °C 30 in /  1017.2 hPa WSW 5 mph /  8.0 km/h 8 mph /  12.9 km/h 71 % 0 in /  0.0 mm
15:52 75.7 °F /  24.3 °C 65.3 °F /  18.5 °C 30 in /  1017.2 hPa SW 11 mph /  17.7 km/h 11 mph /  17.7 km/h 70 % 0 in /  0.0 mm
15:57 75.7 °F /  24.3 °C 65.3 °F /  18.5 °C 30 in /  1017.2 hPa WSW 4 mph /  6.4 km/h 11 mph /  17.7 km/h 70 % 0 in /  0.0 mm
16:02 75.7 °F /  24.3 °C 65.3 °F /  18.5 °C 30 in /  1017.2 hPa SW 6 mph /  9.7 km/h 11 mph /  17.7 km/h 70 % 0 in /  0.0 mm
16:12 75.9 °F /  24.4 °C 65.5 °F /  18.6 °C 30 in /  1016.8 hPa WNW 3 mph /  4.8 km/h 8 mph /  12.9 km/h 70 % 0 in /  0.0 mm
16:17 76.1 °F /  24.5 °C 65.1 °F /  18.4 °C 30 in /  1016.8 hPa WNW 5 mph /  8.0 km/h 7 mph /  11.3 km/h 69 % 0 in /  0.0 mm
16:22 76.1 °F /  24.5 °C 65.1 °F /  18.4 °C 30 in /  1016.8 hPa WNW 5 mph /  8.0 km/h 7 mph /  11.3 km/h 69 % 0 in /  0.0 mm
16:32 76.3 °F /  24.6 °C 64.9 °F /  18.3 °C 30 in /  1016.8 hPa West 5 mph /  8.0 km/h 9 mph /  14.5 km/h 68 % 0 in /  0.0 mm
16:37 76.6 °F /  24.8 °C 65.3 °F /  18.5 °C 30 in /  1016.8 hPa WSW 3 mph /  4.8 km/h 10 mph /  16.1 km/h 68 % 0 in /  0.0 mm
16:42 76.6 °F /  24.8 °C 65.3 °F /  18.5 °C 30 in /  1017.2 hPa WNW 4 mph /  6.4 km/h 10 mph /  16.1 km/h 68 % 0 in /  0.0 mm
16:47 76.8 °F /  24.9 °C 65.5 °F /  18.6 °C 30 in /  1017.2 hPa West 1 mph /  1.6 km/h 10 mph /  16.1 km/h 68 % 0 in /  0.0 mm
16:52 76.6 °F /  24.8 °C 65.3 °F /  18.5 °C 30 in /  1016.8 hPa Calm   8 mph /  12.9 km/h 68 % 0 in /  0.0 mm
16:57 77.4 °F /  25.2 °C 66 °F /  18.9 °C 30 in /  1016.8 hPa WNW 5 mph /  8.0 km/h 8 mph /  12.9 km/h 68 % 0 in /  0.0 mm
17:02 77.4 °F /  25.2 °C 65.5 °F /  18.6 °C 30 in /  1016.8 hPa SSW 4 mph /  6.4 km/h 7 mph /  11.3 km/h 67 % 0 in /  0.0 mm
17:12 76.8 °F /  24.9 °C 64.9 °F /  18.3 °C 30 in /  1017.2 hPa West 5 mph /  8.0 km/h 7 mph /  11.3 km/h 67 % 0 in /  0.0 mm
17:22 76.1 °F /  24.5 °C 65.1 °F /  18.4 °C 30 in /  1017.2 hPa WNW 2 mph /  3.2 km/h 8 mph /  12.9 km/h 69 % 0 in /  0.0 mm
17:32 75.9 °F /  24.4 °C 64.9 °F /  18.3 °C 30 in /  1016.8 hPa West 4 mph /  6.4 km/h 5 mph /  8.0 km/h 69 % 0 in /  0.0 mm
17:37 76.1 °F /  24.5 °C 65.1 °F /  18.4 °C 30 in /  1017.2 hPa WNW 2 mph /  3.2 km/h 5 mph /  8.0 km/h 69 % 0 in /  0.0 mm
17:42 76.1 °F /  24.5 °C 65.7 °F /  18.7 °C 30 in /  1016.8 hPa WSW 1 mph /  1.6 km/h 5 mph /  8.0 km/h 70 % 0 in /  0.0 mm
17:52 76.5 °F /  24.7 °C 66 °F /  18.9 °C 30 in /  1017.2 hPa SSW 2 mph /  3.2 km/h 3 mph /  4.8 km/h 70 % 0 in /  0.0 mm
17:57 76.3 °F /  24.6 °C 65.3 °F /  18.5 °C 30 in /  1016.8 hPa WNW 1 mph /  1.6 km/h 3 mph /  4.8 km/h 69 % 0 in /  0.0 mm
18:02 76.3 °F /  24.6 °C 65.8 °F /  18.8 °C 30 in /  1016.8 hPa Calm   3 mph /  4.8 km/h 70 % 0 in /  0.0 mm
18:12 77.4 °F /  25.2 °C 66.4 °F /  19.1 °C 30 in /  1016.8 hPa NE 2 mph /  3.2 km/h 2 mph /  3.2 km/h 69 % 0 in /  0.0 mm
18:17 77.5 °F /  25.3 °C 66.2 °F /  19.0 °C 30 in /  1016.8 hPa WSW 1 mph /  1.6 km/h 2 mph /  3.2 km/h 68 % 0 in /  0.0 mm
18:22 78.3 °F /  25.7 °C 66.4 °F /  19.1 °C 30 in /  1017.2 hPa WSW 1 mph /  1.6 km/h 3 mph /  4.8 km/h 67 % 0 in /  0.0 mm
18:27 78.3 °F /  25.7 °C 66.4 °F /  19.1 °C 30 in /  1017.2 hPa Calm   2 mph /  3.2 km/h 67 % 0 in /  0.0 mm
18:32 77.7 °F /  25.4 °C 65.8 °F /  18.8 °C 30 in /  1017.2 hPa NE 4 mph /  6.4 km/h 4 mph /  6.4 km/h 67 % 0 in /  0.0 mm
18:37 76.8 °F /  24.9 °C 65.8 °F /  18.8 °C 30 in /  1017.2 hPa NNE 1 mph /  1.6 km/h 5 mph /  8.0 km/h 69 % 0 in /  0.0 mm
18:42 76.6 °F /  24.8 °C 65.7 °F /  18.7 °C 30 in /  1017.2 hPa NE 2 mph /  3.2 km/h 5 mph /  8.0 km/h 69 % 0 in /  0.0 mm
18:47 76.6 °F /  24.8 °C 65.7 °F /  18.7 °C 30 in /  1017.2 hPa Calm   5 mph /  8.0 km/h 69 % 0 in /  0.0 mm
18:52 77.2 °F /  25.1 °C 66.2 °F /  19.0 °C 30 in /  1017.2 hPa Calm   3 mph /  4.8 km/h 69 % 0 in /  0.0 mm
18:57 77.9 °F /  25.5 °C 66 °F /  18.9 °C 30 in /  1017.2 hPa NNE 2 mph /  3.2 km/h 3 mph /  4.8 km/h 67 % 0 in /  0.0 mm
19:02 77.5 °F /  25.3 °C 65.7 °F /  18.7 °C 30 in /  1017.2 hPa North 2 mph /  3.2 km/h 4 mph /  6.4 km/h 67 % 0 in /  0.0 mm
19:07 77.2 °F /  25.1 °C 65.3 °F /  18.5 °C 30 in /  1017.2 hPa WNW 1 mph /  1.6 km/h 4 mph /  6.4 km/h 67 % 0 in /  0.0 mm
19:12 76.6 °F /  24.8 °C 65.3 °F /  18.5 °C 30.1 in /  1017.5 hPa West 2 mph /  3.2 km/h 6 mph /  9.7 km/h 68 % 0 in /  0.0 mm
19:22 76.3 °F /  24.6 °C 64.9 °F /  18.3 °C 30.1 in /  1017.5 hPa WNW 1 mph /  1.6 km/h 6 mph /  9.7 km/h 68 % 0 in /  0.0 mm
19:32 76.3 °F /  24.6 °C 63.7 °F /  17.6 °C 30.1 in /  1017.5 hPa WNW 3 mph /  4.8 km/h 5 mph /  8.0 km/h 65 % 0 in /  0.0 mm
19:42 76.3 °F /  24.6 °C 64.6 °F /  18.1 °C 30.1 in /  1017.5 hPa NNE 1 mph /  1.6 km/h 5 mph /  8.0 km/h 67 % 0 in /  0.0 mm
19:47 76.5 °F /  24.7 °C 64.2 °F /  17.9 °C 30.1 in /  1017.5 hPa WNW 1 mph /  1.6 km/h 5 mph /  8.0 km/h 66 % 0 in /  0.0 mm
19:52 76.8 °F /  24.9 °C 63.7 °F /  17.6 °C 30.1 in /  1017.5 hPa Calm   5 mph /  8.0 km/h 64 % 0 in /  0.0 mm
19:57 77.2 °F /  25.1 °C 63.7 °F /  17.6 °C 30.1 in /  1017.5 hPa Calm   5 mph /  8.0 km/h 63 % 0 in /  0.0 mm
20:02 77.4 °F /  25.2 °C 63.9 °F /  17.7 °C 30.1 in /  1017.5 hPa NW 1 mph /  1.6 km/h 4 mph /  6.4 km/h 63 % 0 in /  0.0 mm
20:07 77.4 °F /  25.2 °C 63.9 °F /  17.7 °C 30.1 in /  1017.5 hPa North 1 mph /  1.6 km/h 3 mph /  4.8 km/h 63 % 0 in /  0.0 mm
20:17 76.8 °F /  24.9 °C 63.3 °F /  17.4 °C 30.1 in /  1017.5 hPa NNE 1 mph /  1.6 km/h 4 mph /  6.4 km/h 63 % 0 in /  0.0 mm
20:22 77.2 °F /  25.1 °C 64 °F /  17.8 °C 30.1 in /  1017.5 hPa Calm   4 mph /  6.4 km/h 64 % 0 in /  0.0 mm
20:27 77.2 °F /  25.1 °C 63.7 °F /  17.6 °C 30.1 in /  1017.8 hPa Calm   3 mph /  4.8 km/h 63 % 0 in /  0.0 mm
20:32 77.2 °F /  25.1 °C 63.1 °F /  17.3 °C 30.1 in /  1017.5 hPa NW 1 mph /  1.6 km/h 2 mph /  3.2 km/h 62 % 0 in /  0.0 mm
20:37 77.2 °F /  25.1 °C 63.7 °F /  17.6 °C 30.1 in /  1017.8 hPa Calm   2 mph /  3.2 km/h 63 % 0 in /  0.0 mm
20:47 76.8 °F /  24.9 °C 63.7 °F /  17.6 °C 30.1 in /  1017.8 hPa Calm   2 mph /  3.2 km/h 64 % 0 in /  0.0 mm
20:52 76.5 °F /  24.7 °C 63.9 °F /  17.7 °C 30.1 in /  1017.8 hPa Calm     65 % 0 in /  0.0 mm
21:02 74.8 °F /  23.8 °C 64.4 °F /  18.0 °C 30.1 in /  1017.8 hPa Calm   1 mph /  1.6 km/h 70 % 0 in /  0.0 mm
21:12 72.9 °F /  22.7 °C 64.4 °F /  18.0 °C 30.1 in /  1018.2 hPa NW 1 mph /  1.6 km/h 1 mph /  1.6 km/h 75 % 0 in /  0.0 mm
21:17 72.1 °F /  22.3 °C 62.6 °F /  17.0 °C 30.1 in /  1018.2 hPa Calm   1 mph /  1.6 km/h 72 % 0 in /  0.0 mm
21:22 72.1 °F /  22.3 °C 63 °F /  17.2 °C 30.1 in /  1018.2 hPa Calm   1 mph /  1.6 km/h 73 % 0 in /  0.0 mm
21:27 71.6 °F /  22.0 °C 63 °F /  17.2 °C 30.1 in /  1018.2 hPa NNW 2 mph /  3.2 km/h 2 mph /  3.2 km/h 74 % 0 in /  0.0 mm
21:32 71.4 °F /  21.9 °C 63.5 °F /  17.5 °C 30.1 in /  1018.2 hPa NNW 1 mph /  1.6 km/h 2 mph /  3.2 km/h 76 % 0 in /  0.0 mm
21:37 71.2 °F /  21.8 °C 63.7 °F /  17.6 °C 30.1 in /  1018.2 hPa Calm   2 mph /  3.2 km/h 77 % 0 in /  0.0 mm
21:42 70.2 °F /  21.2 °C 62.6 °F /  17.0 °C 30.1 in /  1018.5 hPa Calm   2 mph /  3.2 km/h 77 % 0 in /  0.0 mm
21:47 69.6 °F /  20.9 °C 63.1 °F /  17.3 °C 30.1 in /  1018.5 hPa Calm   1 mph /  1.6 km/h 80 % 0 in /  0.0 mm
21:52 68.9 °F /  20.5 °C 62.4 °F /  16.9 °C 30.1 in /  1018.5 hPa Calm     80 % 0 in /  0.0 mm
21:57 69.1 °F /  20.6 °C 62.6 °F /  17.0 °C 30.1 in /  1018.5 hPa Calm     80 % 0 in /  0.0 mm
22:07 68.9 °F /  20.5 °C 62.8 °F /  17.1 °C 30.1 in /  1018.8 hPa Calm     81 % 0 in /  0.0 mm
22:12 68.4 °F /  20.2 °C 63 °F /  17.2 °C 30.1 in /  1018.8 hPa Calm     83 % 0 in /  0.0 mm
22:17 67.8 °F /  19.9 °C 62.8 °F /  17.1 °C 30.1 in /  1018.8 hPa Calm     84 % 0 in /  0.0 mm
22:22 67.5 °F /  19.7 °C 62.4 °F /  16.9 °C 30.1 in /  1018.8 hPa Calm     84 % 0 in /  0.0 mm
22:32 67.3 °F /  19.6 °C 62.6 °F /  17.0 °C 30.1 in /  1018.8 hPa Calm     85 % 0 in /  0.0 mm
22:37 67.3 °F /  19.6 °C 62.6 °F /  17.0 °C 30.1 in /  1018.8 hPa Calm     85 % 0 in /  0.0 mm
22:42 67.3 °F /  19.6 °C 63 °F /  17.2 °C 30.1 in /  1018.8 hPa Calm     86 % 0 in /  0.0 mm
22:47 66.9 °F /  19.4 °C 62.6 °F /  17.0 °C 30.1 in /  1018.8 hPa Calm     86 % 0 in /  0.0 mm
22:52 66.6 °F /  19.2 °C 62.2 °F /  16.8 °C 30.1 in /  1019.2 hPa Calm     86 % 0 in /  0.0 mm
22:57 66.2 °F /  19.0 °C 62.2 °F /  16.8 °C 30.1 in /  1019.2 hPa Calm     87 % 0 in /  0.0 mm
23:02 66 °F /  18.9 °C 62.4 °F /  16.9 °C 30.1 in /  1018.8 hPa Calm     88 % 0 in /  0.0 mm
23:12 65.5 °F /  18.6 °C 62.2 °F /  16.8 °C 30.1 in /  1018.8 hPa Calm     89 % 0 in /  0.0 mm
23:17 65.3 °F /  18.5 °C 62.1 °F /  16.7 °C 30.1 in /  1019.2 hPa Calm     89 % 0 in /  0.0 mm
23:22 64.9 °F /  18.3 °C 61.9 °F /  16.6 °C 30.1 in /  1019.2 hPa Calm     90 % 0 in /  0.0 mm
23:32 64.9 °F /  18.3 °C 61.9 °F /  16.6 °C 30.1 in /  1019.2 hPa Calm     90 % 0 in /  0.0 mm
23:37 65.1 °F /  18.4 °C 62.1 °F /  16.7 °C 30.1 in /  1019.2 hPa Calm     90 % 0 in /  0.0 mm
23:42 65.3 °F /  18.5 °C 62.2 °F /  16.8 °C 30.1 in /  1019.2 hPa Calm     90 % 0 in /  0.0 mm
23:47 64.9 °F /  18.3 °C 61.7 °F /  16.5 °C 30.1 in /  1019.2 hPa Calm     89 % 0 in /  0.0 mm
23:52 64.6 °F /  18.1 °C 61.5 °F /  16.4 °C 30.1 in /  1019.5 hPa WNW 2 mph /  3.2 km/h   90 % 0 in /  0.0 mm
Meteo18
Compliments of Weather Underground - 4 mb

Script developed by  Jim McMurry - jmcmurry@mwt.net Adapted for the template by  Wim van der Kuil - Leuven-Template.eu

You find our weather info also at:

European Weather Network

Weather Underground

Equipment we use:

Weather-station
Davis Vue

Weather-program
Meteohub

Weather-server
Raspberry PI 2 B+

Provider
1 and 1

Davis Vue

Meteohub

Raspberry PI 2 B+

1 and 1